sensor_id;sensor_type;location;lat;lon;timestamp;temperature;humidity
42097;DHT22;27754;45.414;11.084;2022-08-25T00:00:12;23.30;68.50
42097;DHT22;27754;45.414;11.084;2022-08-25T00:02:39;23.20;68.70
42097;DHT22;27754;45.414;11.084;2022-08-25T00:05:23;23.30;68.20
42097;DHT22;27754;45.414;11.084;2022-08-25T00:07:53;23.20;68.10
42097;DHT22;27754;45.414;11.084;2022-08-25T00:10:20;23.30;67.80
42097;DHT22;27754;45.414;11.084;2022-08-25T00:12:47;23.30;67.70
42097;DHT22;27754;45.414;11.084;2022-08-25T00:15:14;23.40;67.30
42097;DHT22;27754;45.414;11.084;2022-08-25T00:17:41;23.30;67.30
42097;DHT22;27754;45.414;11.084;2022-08-25T00:20:09;23.30;67.50
42097;DHT22;27754;45.414;11.084;2022-08-25T00:22:36;23.30;67.90
42097;DHT22;27754;45.414;11.084;2022-08-25T00:25:03;23.30;68.20
42097;DHT22;27754;45.414;11.084;2022-08-25T00:27:30;23.20;68.30
42097;DHT22;27754;45.414;11.084;2022-08-25T00:29:57;23.20;68.50
42097;DHT22;27754;45.414;11.084;2022-08-25T00:32:25;23.20;68.50
42097;DHT22;27754;45.414;11.084;2022-08-25T00:34:52;23.20;68.50
42097;DHT22;27754;45.414;11.084;2022-08-25T00:37:19;23.20;68.40
42097;DHT22;27754;45.414;11.084;2022-08-25T00:39:46;23.20;69.10
42097;DHT22;27754;45.414;11.084;2022-08-25T00:42:14;23.20;69.40
42097;DHT22;27754;45.414;11.084;2022-08-25T00:44:42;23.10;69.00
42097;DHT22;27754;45.414;11.084;2022-08-25T00:47:10;23.20;68.50
42097;DHT22;27754;45.414;11.084;2022-08-25T00:49:55;23.30;68.20
42097;DHT22;27754;45.414;11.084;2022-08-25T00:52:28;23.30;68.20
42097;DHT22;27754;45.414;11.084;2022-08-25T00:54:59;23.20;68.40
42097;DHT22;27754;45.414;11.084;2022-08-25T00:57:44;23.10;68.70
42097;DHT22;27754;45.414;11.084;2022-08-25T01:00:22;23.10;69.00
42097;DHT22;27754;45.414;11.084;2022-08-25T01:02:49;23.00;68.80
42097;DHT22;27754;45.414;11.084;2022-08-25T01:05:17;22.90;68.80
42097;DHT22;27754;45.414;11.084;2022-08-25T01:07:45;23.00;68.70
42097;DHT22;27754;45.414;11.084;2022-08-25T01:10:13;23.00;68.60
42097;DHT22;27754;45.414;11.084;2022-08-25T01:12:40;23.00;68.30
42097;DHT22;27754;45.414;11.084;2022-08-25T01:15:09;23.00;68.30
42097;DHT22;27754;45.414;11.084;2022-08-25T01:17:48;23.00;68.20
42097;DHT22;27754;45.414;11.084;2022-08-25T01:20:18;23.00;68.20
42097;DHT22;27754;45.414;11.084;2022-08-25T01:22:46;23.00;68.30
42097;DHT22;27754;45.414;11.084;2022-08-25T01:27:55;22.90;68.60
42097;DHT22;27754;45.414;11.084;2022-08-25T01:30:23;22.90;68.80
42097;DHT22;27754;45.414;11.084;2022-08-25T01:32:50;22.90;68.80
42097;DHT22;27754;45.414;11.084;2022-08-25T01:35:17;22.90;68.90
42097;DHT22;27754;45.414;11.084;2022-08-25T01:37:45;22.90;69.10
42097;DHT22;27754;45.414;11.084;2022-08-25T01:40:12;22.90;69.40
42097;DHT22;27754;45.414;11.084;2022-08-25T01:45:31;22.70;70.30
42097;DHT22;27754;45.414;11.084;2022-08-25T01:47:58;22.70;70.50
42097;DHT22;27754;45.414;11.084;2022-08-25T01:50:25;22.60;70.70
42097;DHT22;27754;45.414;11.084;2022-08-25T01:53:12;22.70;70.80
42097;DHT22;27754;45.414;11.084;2022-08-25T01:55:43;22.70;70.80
42097;DHT22;27754;45.414;11.084;2022-08-25T01:58:24;22.70;70.70
42097;DHT22;27754;45.414;11.084;2022-08-25T02:00:53;22.70;70.90
42097;DHT22;27754;45.414;11.084;2022-08-25T02:03:22;22.60;71.10
42097;DHT22;27754;45.414;11.084;2022-08-25T02:05:51;22.60;71.60
42097;DHT22;27754;45.414;11.084;2022-08-25T02:08:20;22.60;71.70
42097;DHT22;27754;45.414;11.084;2022-08-25T02:10:49;22.50;71.50
42097;DHT22;27754;45.414;11.084;2022-08-25T02:13:17;22.50;71.30
42097;DHT22;27754;45.414;11.084;2022-08-25T02:15:52;22.50;71.30
42097;DHT22;27754;45.414;11.084;2022-08-25T02:18:20;22.60;71.00
42097;DHT22;27754;45.414;11.084;2022-08-25T02:20:47;22.60;71.30
42097;DHT22;27754;45.414;11.084;2022-08-25T02:23:15;22.60;71.00
42097;DHT22;27754;45.414;11.084;2022-08-25T02:25:42;22.50;71.00
42097;DHT22;27754;45.414;11.084;2022-08-25T02:28:09;22.60;71.20
42097;DHT22;27754;45.414;11.084;2022-08-25T02:30:38;22.60;71.50
42097;DHT22;27754;45.414;11.084;2022-08-25T02:33:05;22.50;71.90
42097;DHT22;27754;45.414;11.084;2022-08-25T02:35:32;22.40;72.40
42097;DHT22;27754;45.414;11.084;2022-08-25T02:38:00;22.40;72.80
42097;DHT22;27754;45.414;11.084;2022-08-25T02:40:27;22.40;73.20
42097;DHT22;27754;45.414;11.084;2022-08-25T02:42:54;22.40;73.40
42097;DHT22;27754;45.414;11.084;2022-08-25T02:45:22;22.40;73.60
42097;DHT22;27754;45.414;11.084;2022-08-25T02:47:49;22.40;73.70
42097;DHT22;27754;45.414;11.084;2022-08-25T02:50:17;22.40;73.90
42097;DHT22;27754;45.414;11.084;2022-08-25T02:52:44;22.30;74.90
42097;DHT22;27754;45.414;11.084;2022-08-25T02:55:11;22.30;75.20
42097;DHT22;27754;45.414;11.084;2022-08-25T02:57:40;22.20;75.20
42097;DHT22;27754;45.414;11.084;2022-08-25T03:00:10;22.20;75.30
42097;DHT22;27754;45.414;11.084;2022-08-25T03:02:39;22.20;75.60
42097;DHT22;27754;45.414;11.084;2022-08-25T03:05:08;22.20;75.20
42097;DHT22;27754;45.414;11.084;2022-08-25T03:07:36;22.20;75.10
42097;DHT22;27754;45.414;11.084;2022-08-25T03:10:13;22.20;75.00
42097;DHT22;27754;45.414;11.084;2022-08-25T03:12:40;22.20;75.70
42097;DHT22;27754;45.414;11.084;2022-08-25T03:15:12;22.10;75.90
42097;DHT22;27754;45.414;11.084;2022-08-25T03:17:46;22.10;75.70
42097;DHT22;27754;45.414;11.084;2022-08-25T03:20:17;22.10;75.70
42097;DHT22;27754;45.414;11.084;2022-08-25T03:22:44;22.00;75.70
42097;DHT22;27754;45.414;11.084;2022-08-25T03:25:11;22.00;75.90
42097;DHT22;27754;45.414;11.084;2022-08-25T03:27:57;21.90;76.20
42097;DHT22;27754;45.414;11.084;2022-08-25T03:30:24;21.80;76.80
42097;DHT22;27754;45.414;11.084;2022-08-25T03:32:52;21.70;77.00
42097;DHT22;27754;45.414;11.084;2022-08-25T03:35:19;21.70;76.70
42097;DHT22;27754;45.414;11.084;2022-08-25T03:37:46;21.70;76.80
42097;DHT22;27754;45.414;11.084;2022-08-25T03:40:15;21.70;76.90
42097;DHT22;27754;45.414;11.084;2022-08-25T03:42:44;21.60;77.40
42097;DHT22;27754;45.414;11.084;2022-08-25T03:45:13;21.60;77.60
42097;DHT22;27754;45.414;11.084;2022-08-25T03:47:45;21.50;77.90
42097;DHT22;27754;45.414;11.084;2022-08-25T03:50:13;21.40;77.70
42097;DHT22;27754;45.414;11.084;2022-08-25T03:52:40;21.40;77.70
42097;DHT22;27754;45.414;11.084;2022-08-25T03:55:11;21.50;77.70
42097;DHT22;27754;45.414;11.084;2022-08-25T03:57:38;21.50;77.60
42097;DHT22;27754;45.414;11.084;2022-08-25T04:00:09;21.60;77.60
42097;DHT22;27754;45.414;11.084;2022-08-25T04:02:38;21.50;77.40
42097;DHT22;27754;45.414;11.084;2022-08-25T04:05:06;21.60;77.40
42097;DHT22;27754;45.414;11.084;2022-08-25T04:07:34;21.60;77.50
42097;DHT22;27754;45.414;11.084;2022-08-25T04:10:01;21.60;77.50
42097;DHT22;27754;45.414;11.084;2022-08-25T04:12:28;21.70;77.40
42097;DHT22;27754;45.414;11.084;2022-08-25T04:14:57;21.70;77.30
42097;DHT22;27754;45.414;11.084;2022-08-25T04:17:24;21.70;77.30
42097;DHT22;27754;45.414;11.084;2022-08-25T04:19:51;21.80;77.10
42097;DHT22;27754;45.414;11.084;2022-08-25T04:22:18;21.80;77.10
42097;DHT22;27754;45.414;11.084;2022-08-25T04:24:45;21.80;77.10
42097;DHT22;27754;45.414;11.084;2022-08-25T04:27:12;21.80;77.00
42097;DHT22;27754;45.414;11.084;2022-08-25T04:29:40;21.90;76.60
42097;DHT22;27754;45.414;11.084;2022-08-25T04:32:07;21.90;76.40
42097;DHT22;27754;45.414;11.084;2022-08-25T04:34:34;21.90;76.30
42097;DHT22;27754;45.414;11.084;2022-08-25T04:37:02;21.90;76.40
42097;DHT22;27754;45.414;11.084;2022-08-25T04:39:31;21.90;76.40
42097;DHT22;27754;45.414;11.084;2022-08-25T04:41:58;21.80;76.50
42097;DHT22;27754;45.414;11.084;2022-08-25T04:44:27;21.80;76.80
42097;DHT22;27754;45.414;11.084;2022-08-25T04:46:54;21.80;77.00
42097;DHT22;27754;45.414;11.084;2022-08-25T04:49:21;21.80;76.90
42097;DHT22;27754;45.414;11.084;2022-08-25T04:51:48;21.80;76.90
42097;DHT22;27754;45.414;11.084;2022-08-25T04:54:16;21.90;76.80
42097;DHT22;27754;45.414;11.084;2022-08-25T04:56:48;21.90;76.40
42097;DHT22;27754;45.414;11.084;2022-08-25T04:59:19;22.10;76.40
42097;DHT22;27754;45.414;11.084;2022-08-25T05:01:46;22.20;75.90
42097;DHT22;27754;45.414;11.084;2022-08-25T05:04:21;22.30;75.70
42097;DHT22;27754;45.414;11.084;2022-08-25T05:06:54;22.40;75.40
42097;DHT22;27754;45.414;11.084;2022-08-25T05:09:22;22.50;75.20
42097;DHT22;27754;45.414;11.084;2022-08-25T05:11:51;22.60;75.00
42097;DHT22;27754;45.414;11.084;2022-08-25T05:14:19;22.50;74.80
42097;DHT22;27754;45.414;11.084;2022-08-25T05:16:53;22.70;74.90
42097;DHT22;27754;45.414;11.084;2022-08-25T05:19:20;22.90;74.30
42097;DHT22;27754;45.414;11.084;2022-08-25T05:21:49;23.00;74.20
42097;DHT22;27754;45.414;11.084;2022-08-25T05:24:17;23.10;74.10
42097;DHT22;27754;45.414;11.084;2022-08-25T05:26:44;23.00;75.40
42097;DHT22;27754;45.414;11.084;2022-08-25T05:29:11;23.00;75.30
42097;DHT22;27754;45.414;11.084;2022-08-25T05:31:38;23.10;75.50
42097;DHT22;27754;45.414;11.084;2022-08-25T05:34:10;23.10;75.30
42097;DHT22;27754;45.414;11.084;2022-08-25T05:36:38;23.10;75.40
42097;DHT22;27754;45.414;11.084;2022-08-25T05:39:09;23.20;75.10
42097;DHT22;27754;45.414;11.084;2022-08-25T05:41:37;23.40;74.50
42097;DHT22;27754;45.414;11.084;2022-08-25T05:44:04;23.40;74.90
42097;DHT22;27754;45.414;11.084;2022-08-25T05:46:31;23.50;74.00
42097;DHT22;27754;45.414;11.084;2022-08-25T05:48:58;23.60;73.70
42097;DHT22;27754;45.414;11.084;2022-08-25T05:51:25;23.80;72.80
42097;DHT22;27754;45.414;11.084;2022-08-25T05:53:52;24.00;72.20
42097;DHT22;27754;45.414;11.084;2022-08-25T05:56:20;24.10;71.60
42097;DHT22;27754;45.414;11.084;2022-08-25T05:58:47;24.30;71.20
42097;DHT22;27754;45.414;11.084;2022-08-25T06:01:21;24.60;70.20
42097;DHT22;27754;45.414;11.084;2022-08-25T06:04:09;24.70;69.80
42097;DHT22;27754;45.414;11.084;2022-08-25T06:06:36;24.80;69.10
42097;DHT22;27754;45.414;11.084;2022-08-25T06:09:03;25.00;69.70
42097;DHT22;27754;45.414;11.084;2022-08-25T06:11:32;25.20;69.80
42097;DHT22;27754;45.414;11.084;2022-08-25T06:13:59;25.40;68.80
42097;DHT22;27754;45.414;11.084;2022-08-25T06:16:26;25.60;68.40
42097;DHT22;27754;45.414;11.084;2022-08-25T06:18:53;25.80;67.70
42097;DHT22;27754;45.414;11.084;2022-08-25T06:21:21;25.90;67.20
42097;DHT22;27754;45.414;11.084;2022-08-25T06:23:48;26.00;67.00
42097;DHT22;27754;45.414;11.084;2022-08-25T06:26:15;26.00;67.30
42097;DHT22;27754;45.414;11.084;2022-08-25T06:28:48;26.10;67.30
42097;DHT22;27754;45.414;11.084;2022-08-25T06:31:17;26.20;67.10
42097;DHT22;27754;45.414;11.084;2022-08-25T06:34:02;26.40;66.60
42097;DHT22;27754;45.414;11.084;2022-08-25T06:36:29;26.50;66.00
42097;DHT22;27754;45.414;11.084;2022-08-25T06:38:56;26.60;65.60
42097;DHT22;27754;45.414;11.084;2022-08-25T06:41:23;26.70;65.70
42097;DHT22;27754;45.414;11.084;2022-08-25T06:44:03;26.90;64.50
42097;DHT22;27754;45.414;11.084;2022-08-25T06:46:31;27.00;64.60
42097;DHT22;27754;45.414;11.084;2022-08-25T06:49:04;27.20;64.20
42097;DHT22;27754;45.414;11.084;2022-08-25T06:51:32;27.10;64.30
42097;DHT22;27754;45.414;11.084;2022-08-25T06:54:03;27.30;63.30
42097;DHT22;27754;45.414;11.084;2022-08-25T06:56:31;27.40;62.90
42097;DHT22;27754;45.414;11.084;2022-08-25T06:59:00;27.50;62.00
42097;DHT22;27754;45.414;11.084;2022-08-25T07:01:27;27.60;62.30
42097;DHT22;27754;45.414;11.084;2022-08-25T07:03:59;27.60;62.30
42097;DHT22;27754;45.414;11.084;2022-08-25T07:06:28;27.70;61.80
42097;DHT22;27754;45.414;11.084;2022-08-25T07:08:57;27.80;61.20
42097;DHT22;27754;45.414;11.084;2022-08-25T07:11:24;28.00;61.00
42097;DHT22;27754;45.414;11.084;2022-08-25T07:13:52;28.10;59.40
42097;DHT22;27754;45.414;11.084;2022-08-25T07:16:19;28.30;58.60
42097;DHT22;27754;45.414;11.084;2022-08-25T07:18:47;28.40;57.50
42097;DHT22;27754;45.414;11.084;2022-08-25T07:21:15;28.60;56.60
42097;DHT22;27754;45.414;11.084;2022-08-25T07:23:45;28.70;56.60
42097;DHT22;27754;45.414;11.084;2022-08-25T07:26:20;28.80;56.60
42097;DHT22;27754;45.414;11.084;2022-08-25T07:29:11;28.90;55.30
42097;DHT22;27754;45.414;11.084;2022-08-25T07:31:38;28.90;56.00
42097;DHT22;27754;45.414;11.084;2022-08-25T07:34:06;29.20;55.00
42097;DHT22;27754;45.414;11.084;2022-08-25T07:36:52;29.00;55.90
42097;DHT22;27754;45.414;11.084;2022-08-25T07:39:21;29.20;56.00
42097;DHT22;27754;45.414;11.084;2022-08-25T07:41:49;29.20;56.20
42097;DHT22;27754;45.414;11.084;2022-08-25T07:44:19;29.40;56.10
42097;DHT22;27754;45.414;11.084;2022-08-25T07:46:48;29.50;54.70
42097;DHT22;27754;45.414;11.084;2022-08-25T07:49:19;29.60;55.00
42097;DHT22;27754;45.414;11.084;2022-08-25T07:51:50;29.90;54.70
42097;DHT22;27754;45.414;11.084;2022-08-25T07:54:32;30.20;54.20
42097;DHT22;27754;45.414;11.084;2022-08-25T07:57:02;30.00;53.70
42097;DHT22;27754;45.414;11.084;2022-08-25T07:59:29;30.00;54.30
42097;DHT22;27754;45.414;11.084;2022-08-25T08:02:09;30.20;54.40
42097;DHT22;27754;45.414;11.084;2022-08-25T08:04:49;30.20;53.40
42097;DHT22;27754;45.414;11.084;2022-08-25T08:07:24;30.30;54.10
42097;DHT22;27754;45.414;11.084;2022-08-25T08:10:11;30.50;54.10
42097;DHT22;27754;45.414;11.084;2022-08-25T08:12:58;30.20;54.70
42097;DHT22;27754;45.414;11.084;2022-08-25T08:15:25;30.60;54.10
42097;DHT22;27754;45.414;11.084;2022-08-25T08:17:56;30.80;53.30
42097;DHT22;27754;45.414;11.084;2022-08-25T08:20:25;30.80;52.80
42097;DHT22;27754;45.414;11.084;2022-08-25T08:22:54;30.50;52.20
42097;DHT22;27754;45.414;11.084;2022-08-25T08:25:21;30.70;52.80
42097;DHT22;27754;45.414;11.084;2022-08-25T08:27:55;30.80;52.50
42097;DHT22;27754;45.414;11.084;2022-08-25T08:30:23;30.30;53.00
42097;DHT22;27754;45.414;11.084;2022-08-25T08:32:52;30.60;53.10
42097;DHT22;27754;45.414;11.084;2022-08-25T08:35:35;30.80;52.00
42097;DHT22;27754;45.414;11.084;2022-08-25T08:38:03;30.80;51.80
42097;DHT22;27754;45.414;11.084;2022-08-25T08:40:47;30.90;51.20
42097;DHT22;27754;45.414;11.084;2022-08-25T08:43:35;31.00;50.50
42097;DHT22;27754;45.414;11.084;2022-08-25T08:46:06;30.90;51.60
42097;DHT22;27754;45.414;11.084;2022-08-25T08:51:31;30.90;52.00
42097;DHT22;27754;45.414;11.084;2022-08-25T08:54:13;30.80;53.20
42097;DHT22;27754;45.414;11.084;2022-08-25T08:56:47;30.40;54.60
42097;DHT22;27754;45.414;11.084;2022-08-25T08:59:19;30.40;54.10
42097;DHT22;27754;45.414;11.084;2022-08-25T09:01:58;30.30;53.10
42097;DHT22;27754;45.414;11.084;2022-08-25T09:04:44;30.30;52.50
42097;DHT22;27754;45.414;11.084;2022-08-25T09:07:19;30.40;53.10
42097;DHT22;27754;45.414;11.084;2022-08-25T09:09:48;30.50;53.00
42097;DHT22;27754;45.414;11.084;2022-08-25T09:12:47;30.40;53.80
42097;DHT22;27754;45.414;11.084;2022-08-25T09:27:21;30.80;53.20
42097;DHT22;27754;45.414;11.084;2022-08-25T09:30:08;30.70;54.20
42097;DHT22;27754;45.414;11.084;2022-08-25T09:32:47;30.70;53.50
42097;DHT22;27754;45.414;11.084;2022-08-25T09:35:27;30.80;53.30
42097;DHT22;27754;45.414;11.084;2022-08-25T09:38:03;30.70;51.80
42097;DHT22;27754;45.414;11.084;2022-08-25T09:40:34;30.70;51.40
42097;DHT22;27754;45.414;11.084;2022-08-25T09:43:03;30.80;51.40
42097;DHT22;27754;45.414;11.084;2022-08-25T09:45:42;30.80;52.20
42097;DHT22;27754;45.414;11.084;2022-08-25T09:48:33;30.80;53.00
42097;DHT22;27754;45.414;11.084;2022-08-25T09:51:43;30.90;52.60
42097;DHT22;27754;45.414;11.084;2022-08-25T09:56:52;30.70;51.50
42097;DHT22;27754;45.414;11.084;2022-08-25T09:59:21;30.80;51.30
42097;DHT22;27754;45.414;11.084;2022-08-25T10:02:25;30.80;50.20
42097;DHT22;27754;45.414;11.084;2022-08-25T10:04:53;30.80;50.70
42097;DHT22;27754;45.414;11.084;2022-08-25T10:07:30;30.80;50.90
42097;DHT22;27754;45.414;11.084;2022-08-25T10:10:02;30.80;50.90
42097;DHT22;27754;45.414;11.084;2022-08-25T10:12:41;30.80;50.60
42097;DHT22;27754;45.414;11.084;2022-08-25T10:15:21;30.80;50.70
42097;DHT22;27754;45.414;11.084;2022-08-25T10:18:26;31.00;51.30
42097;DHT22;27754;45.414;11.084;2022-08-25T10:23:36;31.00;49.70
42097;DHT22;27754;45.414;11.084;2022-08-25T10:26:13;31.00;50.30
42097;DHT22;27754;45.414;11.084;2022-08-25T10:34:49;31.00;51.20
42097;DHT22;27754;45.414;11.084;2022-08-25T10:40:15;31.30;50.20
42097;DHT22;27754;45.414;11.084;2022-08-25T10:45:46;31.10;50.00
42097;DHT22;27754;45.414;11.084;2022-08-25T10:56:25;31.00;50.30
42097;DHT22;27754;45.414;11.084;2022-08-25T11:02:12;31.00;51.50
42097;DHT22;27754;45.414;11.084;2022-08-25T11:04:56;30.90;50.80
42097;DHT22;27754;45.414;11.084;2022-08-25T11:07:30;31.00;51.30
42097;DHT22;27754;45.414;11.084;2022-08-25T11:10:07;31.00;50.70
42097;DHT22;27754;45.414;11.084;2022-08-25T11:12:59;30.90;52.60
42097;DHT22;27754;45.414;11.084;2022-08-25T11:15:30;31.00;51.30
42097;DHT22;27754;45.414;11.084;2022-08-25T11:18:09;31.00;50.70
42097;DHT22;27754;45.414;11.084;2022-08-25T11:23:46;31.10;50.50
42097;DHT22;27754;45.414;11.084;2022-08-25T11:26:19;31.30;50.20
42097;DHT22;27754;45.414;11.084;2022-08-25T11:29:15;31.30;51.70
42097;DHT22;27754;45.414;11.084;2022-08-25T11:31:46;31.40;50.80
42097;DHT22;27754;45.414;11.084;2022-08-25T11:34:19;31.40;49.80
42097;DHT22;27754;45.414;11.084;2022-08-25T11:36:56;31.40;49.50
42097;DHT22;27754;45.414;11.084;2022-08-25T11:39:33;31.30;50.10
42097;DHT22;27754;45.414;11.084;2022-08-25T11:45:19;31.50;49.00
42097;DHT22;27754;45.414;11.084;2022-08-25T11:51:04;31.50;49.60
42097;DHT22;27754;45.414;11.084;2022-08-25T11:53:35;31.60;48.40
42097;DHT22;27754;45.414;11.084;2022-08-25T11:56:31;31.50;48.90
42097;DHT22;27754;45.414;11.084;2022-08-25T11:59:01;31.50;49.30
42097;DHT22;27754;45.414;11.084;2022-08-25T12:04:38;31.30;50.00
42097;DHT22;27754;45.414;11.084;2022-08-25T12:15:22;31.70;48.20
42097;DHT22;27754;45.414;11.084;2022-08-25T12:23:43;31.80;48.60
42097;DHT22;27754;45.414;11.084;2022-08-25T12:26:39;31.90;49.30
42097;DHT22;27754;45.414;11.084;2022-08-25T12:35:10;31.90;47.40
42097;DHT22;27754;45.414;11.084;2022-08-25T12:40:33;31.80;48.00
42097;DHT22;27754;45.414;11.084;2022-08-25T12:43:30;31.80;48.30
42097;DHT22;27754;45.414;11.084;2022-08-25T12:51:26;31.70;49.10
42097;DHT22;27754;45.414;11.084;2022-08-25T12:56:41;31.90;49.40
42097;DHT22;27754;45.414;11.084;2022-08-25T13:05:04;32.10;48.80
42097;DHT22;27754;45.414;11.084;2022-08-25T13:10:43;32.30;49.00
42097;DHT22;27754;45.414;11.084;2022-08-25T13:16:02;32.30;48.70
42097;DHT22;27754;45.414;11.084;2022-08-25T13:18:35;32.40;47.70
42097;DHT22;27754;45.414;11.084;2022-08-25T13:21:18;32.30;48.10
42097;DHT22;27754;45.414;11.084;2022-08-25T13:23:48;32.30;47.90
42097;DHT22;27754;45.414;11.084;2022-08-25T13:26:31;32.40;49.10
42097;DHT22;27754;45.414;11.084;2022-08-25T13:31:53;32.60;48.40
42097;DHT22;27754;45.414;11.084;2022-08-25T13:34:32;32.70;47.80
42097;DHT22;27754;45.414;11.084;2022-08-25T13:37:10;32.60;47.80
42097;DHT22;27754;45.414;11.084;2022-08-25T13:40:26;32.50;48.60
42097;DHT22;27754;45.414;11.084;2022-08-25T13:43:04;32.30;47.60
42097;DHT22;27754;45.414;11.084;2022-08-25T13:45:36;32.40;47.60
42097;DHT22;27754;45.414;11.084;2022-08-25T13:48:11;32.40;47.60
42097;DHT22;27754;45.414;11.084;2022-08-25T13:50:49;32.60;47.80
42097;DHT22;27754;45.414;11.084;2022-08-25T13:53:24;32.80;47.10
42097;DHT22;27754;45.414;11.084;2022-08-25T13:55:58;32.70;46.80
42097;DHT22;27754;45.414;11.084;2022-08-25T13:58:31;32.80;47.40
42097;DHT22;27754;45.414;11.084;2022-08-25T14:01:21;32.40;47.40
42097;DHT22;27754;45.414;11.084;2022-08-25T14:04:54;32.60;47.40
42097;DHT22;27754;45.414;11.084;2022-08-25T14:09:49;32.60;47.60
42097;DHT22;27754;45.414;11.084;2022-08-25T14:17:31;32.60;46.90
42097;DHT22;27754;45.414;11.084;2022-08-25T14:20:16;32.60;47.20
42097;DHT22;27754;45.414;11.084;2022-08-25T14:22:45;32.70;47.20
42097;DHT22;27754;45.414;11.084;2022-08-25T14:25:12;32.70;47.80
42097;DHT22;27754;45.414;11.084;2022-08-25T14:27:43;32.80;47.90
42097;DHT22;27754;45.414;11.084;2022-08-25T14:30:34;32.80;47.70
42097;DHT22;27754;45.414;11.084;2022-08-25T14:33:02;32.70;47.70
42097;DHT22;27754;45.414;11.084;2022-08-25T14:35:30;32.70;47.40
42097;DHT22;27754;45.414;11.084;2022-08-25T14:37:57;32.80;47.30
42097;DHT22;27754;45.414;11.084;2022-08-25T14:40:24;32.80;47.30
42097;DHT22;27754;45.414;11.084;2022-08-25T14:42:52;32.90;47.10
42097;DHT22;27754;45.414;11.084;2022-08-25T14:45:19;32.90;46.80
42097;DHT22;27754;45.414;11.084;2022-08-25T14:47:46;32.80;47.10
42097;DHT22;27754;45.414;11.084;2022-08-25T14:50:17;32.80;47.00
42097;DHT22;27754;45.414;11.084;2022-08-25T14:52:46;32.80;47.80
42097;DHT22;27754;45.414;11.084;2022-08-25T14:55:18;32.80;47.40
42097;DHT22;27754;45.414;11.084;2022-08-25T14:57:57;32.70;46.80
42097;DHT22;27754;45.414;11.084;2022-08-25T15:00:24;32.70;46.60
42097;DHT22;27754;45.414;11.084;2022-08-25T15:02:52;32.60;47.30
42097;DHT22;27754;45.414;11.084;2022-08-25T15:05:23;32.70;47.30
42097;DHT22;27754;45.414;11.084;2022-08-25T15:07:54;32.70;47.30
42097;DHT22;27754;45.414;11.084;2022-08-25T15:10:40;32.80;47.40
42097;DHT22;27754;45.414;11.084;2022-08-25T15:13:09;32.60;48.00
42097;DHT22;27754;45.414;11.084;2022-08-25T15:15:39;32.40;47.10
42097;DHT22;27754;45.414;11.084;2022-08-25T15:18:19;32.50;47.00
42097;DHT22;27754;45.414;11.084;2022-08-25T15:20:48;32.50;46.80
42097;DHT22;27754;45.414;11.084;2022-08-25T15:23:17;32.40;47.20
42097;DHT22;27754;45.414;11.084;2022-08-25T15:25:46;32.50;47.10
42097;DHT22;27754;45.414;11.084;2022-08-25T15:28:15;32.60;46.90
42097;DHT22;27754;45.414;11.084;2022-08-25T15:30:43;32.50;47.20
42097;DHT22;27754;45.414;11.084;2022-08-25T15:33:12;32.40;47.70
42097;DHT22;27754;45.414;11.084;2022-08-25T15:35:40;32.30;47.60
42097;DHT22;27754;45.414;11.084;2022-08-25T15:38:09;32.30;47.90
42097;DHT22;27754;45.414;11.084;2022-08-25T15:40:36;32.20;47.80
42097;DHT22;27754;45.414;11.084;2022-08-25T15:43:05;32.30;47.60
42097;DHT22;27754;45.414;11.084;2022-08-25T15:45:33;32.30;47.70
42097;DHT22;27754;45.414;11.084;2022-08-25T15:48:05;32.30;47.20
42097;DHT22;27754;45.414;11.084;2022-08-25T15:50:35;32.30;47.50
42097;DHT22;27754;45.414;11.084;2022-08-25T15:53:04;32.30;47.60
42097;DHT22;27754;45.414;11.084;2022-08-25T15:55:38;32.20;47.20
42097;DHT22;27754;45.414;11.084;2022-08-25T15:58:05;32.10;47.90
42097;DHT22;27754;45.414;11.084;2022-08-25T16:00:35;32.10;47.30
42097;DHT22;27754;45.414;11.084;2022-08-25T16:03:03;32.10;47.50
42097;DHT22;27754;45.414;11.084;2022-08-25T16:05:35;32.10;48.00
42097;DHT22;27754;45.414;11.084;2022-08-25T16:08:03;32.00;48.20
42097;DHT22;27754;45.414;11.084;2022-08-25T16:10:39;31.90;48.00
42097;DHT22;27754;45.414;11.084;2022-08-25T16:13:07;31.80;48.10
42097;DHT22;27754;45.414;11.084;2022-08-25T16:15:35;31.80;48.40
42097;DHT22;27754;45.414;11.084;2022-08-25T16:18:03;31.80;48.10
42097;DHT22;27754;45.414;11.084;2022-08-25T16:20:34;31.80;48.70
42097;DHT22;27754;45.414;11.084;2022-08-25T16:23:01;31.70;49.20
42097;DHT22;27754;45.414;11.084;2022-08-25T16:25:30;31.60;48.70
42097;DHT22;27754;45.414;11.084;2022-08-25T16:27:57;31.50;48.80
42097;DHT22;27754;45.414;11.084;2022-08-25T16:30:24;31.50;48.40
42097;DHT22;27754;45.414;11.084;2022-08-25T16:32:50;31.30;48.10
42097;DHT22;27754;45.414;11.084;2022-08-25T16:35:18;31.30;48.70
42097;DHT22;27754;45.414;11.084;2022-08-25T16:37:45;31.30;48.40
42097;DHT22;27754;45.414;11.084;2022-08-25T16:40:14;31.30;48.50
42097;DHT22;27754;45.414;11.084;2022-08-25T16:42:42;31.30;48.80
42097;DHT22;27754;45.414;11.084;2022-08-25T16:45:10;31.20;48.90
42097;DHT22;27754;45.414;11.084;2022-08-25T16:47:37;31.10;48.70
42097;DHT22;27754;45.414;11.084;2022-08-25T16:50:08;31.10;49.40
42097;DHT22;27754;45.414;11.084;2022-08-25T16:52:36;31.10;49.60
42097;DHT22;27754;45.414;11.084;2022-08-25T16:55:25;31.00;48.90
42097;DHT22;27754;45.414;11.084;2022-08-25T16:57:53;31.00;49.60
42097;DHT22;27754;45.414;11.084;2022-08-25T17:00:23;30.90;49.70
42097;DHT22;27754;45.414;11.084;2022-08-25T17:02:56;31.00;50.00
42097;DHT22;27754;45.414;11.084;2022-08-25T17:05:27;30.90;49.80
42097;DHT22;27754;45.414;11.084;2022-08-25T17:07:55;30.90;49.80
42097;DHT22;27754;45.414;11.084;2022-08-25T17:10:43;30.90;50.10
42097;DHT22;27754;45.414;11.084;2022-08-25T17:13:10;30.80;50.30
42097;DHT22;27754;45.414;11.084;2022-08-25T17:15:45;30.80;50.50
42097;DHT22;27754;45.414;11.084;2022-08-25T17:18:13;30.80;50.50
42097;DHT22;27754;45.414;11.084;2022-08-25T17:20:41;30.80;50.60
42097;DHT22;27754;45.414;11.084;2022-08-25T17:23:11;30.70;51.00
42097;DHT22;27754;45.414;11.084;2022-08-25T17:25:40;30.60;51.20
42097;DHT22;27754;45.414;11.084;2022-08-25T17:28:09;30.60;51.50
42097;DHT22;27754;45.414;11.084;2022-08-25T17:30:38;30.50;51.50
42097;DHT22;27754;45.414;11.084;2022-08-25T17:33:05;30.40;51.90
42097;DHT22;27754;45.414;11.084;2022-08-25T17:35:38;30.40;51.90
42097;DHT22;27754;45.414;11.084;2022-08-25T17:38:06;30.30;51.90